createdAt,value
2022-12-26T00:02:04.614Z,95002.94
2022-12-26T00:04:51.149Z,95001.38
2022-12-26T00:07:21.275Z,94999.69
2022-12-26T00:09:49.074Z,95006.78
2022-12-26T00:12:16.672Z,95001.59
2022-12-26T00:14:44.233Z,94996.19
2022-12-26T00:17:11.831Z,94995.38
2022-12-26T00:19:39.549Z,95000.13
2022-12-26T00:22:07.188Z,95003.22
2022-12-26T00:24:36.232Z,95003.59
2022-12-26T00:27:03.858Z,95007.56
2022-12-26T00:29:31.682Z,95003.84
2022-12-26T00:31:59.297Z,95006.19
2022-12-26T00:34:26.968Z,95004.13
2022-12-26T00:36:54.554Z,94997.25
2022-12-26T00:39:22.158Z,95001.84
2022-12-26T00:41:51.158Z,94997.94
2022-12-26T00:44:18.777Z,94995.50
2022-12-26T00:46:46.363Z,95005.72
2022-12-26T00:49:14.026Z,95005.72
2022-12-26T00:51:41.607Z,95003.22
2022-12-26T00:54:09.212Z,95012.38
2022-12-26T00:56:36.826Z,95008.47
2022-12-26T00:59:05.770Z,95008.50
2022-12-26T01:01:34.034Z,95003.31
2022-12-26T01:04:01.780Z,95006.44
2022-12-26T01:06:29.414Z,95012.25
2022-12-26T01:08:56.993Z,95007.66
2022-12-26T01:11:38.492Z,95012.66
2022-12-26T01:14:08.298Z,95014.97
2022-12-26T01:16:35.987Z,95012.91
2022-12-26T01:19:03.653Z,95017.94
2022-12-26T01:21:31.255Z,95023.34
2022-12-26T01:23:58.840Z,95023.38
2022-12-26T01:26:26.468Z,95025.06
2022-12-26T01:28:54.263Z,95022.97
2022-12-26T01:31:23.691Z,95025.69
2022-12-26T01:33:51.642Z,95023.00
2022-12-26T01:36:19.427Z,95029.44
2022-12-26T01:38:47.289Z,95031.31
2022-12-26T01:41:19.629Z,95028.00
2022-12-26T01:43:57.073Z,95027.59
2022-12-26T01:46:30.490Z,95033.00
2022-12-26T01:49:00.694Z,95025.31
2022-12-26T01:51:30.580Z,95030.72
2022-12-26T01:54:40.773Z,95032.78
2022-12-26T01:56:48.363Z,95035.50
2022-12-26T01:59:19.474Z,95043.13
2022-12-26T02:01:49.855Z,95033.41
2022-12-26T02:04:39.347Z,95033.81
2022-12-26T02:07:07.043Z,95035.25
2022-12-26T02:09:34.792Z,95029.25
2022-12-26T02:12:35.918Z,95033.00
2022-12-26T02:14:53.269Z,95033.41
2022-12-26T02:17:22.218Z,95033.41
2022-12-26T02:19:53.862Z,95041.91
2022-12-26T02:22:50.995Z,95044.19
2022-12-26T02:25:29.409Z,95041.91
2022-12-26T02:28:11.739Z,95041.28
2022-12-26T02:30:44.196Z,95039.63
2022-12-26T02:33:41.248Z,95046.47
2022-12-26T02:36:37.170Z,95039.22
2022-12-26T02:39:44.723Z,95038.19
2022-12-26T02:42:07.112Z,95040.88
2022-12-26T02:44:56.095Z,95043.78
2022-12-26T02:47:30.466Z,95044.78
2022-12-26T02:50:21.200Z,95040.84
2022-12-26T02:53:16.120Z,95042.59
2022-12-26T02:56:03.471Z,95035.22
2022-12-26T02:58:52.179Z,95033.75
2022-12-26T03:01:42.145Z,95039.22
2022-12-26T03:04:31.538Z,95031.38
2022-12-26T03:07:18.725Z,95035.44
2022-12-26T03:10:03.985Z,95030.56
2022-12-26T03:12:55.311Z,95032.84
2022-12-26T03:15:23.677Z,95029.53
2022-12-26T03:17:53.070Z,95037.81
2022-12-26T03:20:24.518Z,95034.84
2022-12-26T03:22:55.508Z,95040.13
2022-12-26T03:25:43.915Z,95036.97
2022-12-26T03:28:13.920Z,95030.44
2022-12-26T03:30:50.082Z,95034.81
2022-12-26T03:33:35.786Z,95035.25
2022-12-26T03:36:06.181Z,95028.78
2022-12-26T03:38:36.276Z,95028.13
2022-12-26T03:41:25.603Z,95024.53
2022-12-26T03:44:21.030Z,95035.91
2022-12-26T03:47:14.832Z,95030.41
2022-12-26T03:50:03.195Z,95029.91
2022-12-26T03:52:55.983Z,95025.00
2022-12-26T03:55:45.049Z,95021.94
2022-12-26T03:58:32.793Z,95027.41
2022-12-26T04:01:18.624Z,95034.09
2022-12-26T04:04:04.970Z,95032.47
2022-12-26T04:06:52.973Z,95026.97
2022-12-26T04:09:42.774Z,95041.78
2022-12-26T04:12:30.100Z,95045.34
2022-12-26T04:15:18.005Z,95046.69
2022-12-26T04:18:08.700Z,95056.09
2022-12-26T04:20:40.917Z,95065.25
2022-12-26T04:23:29.818Z,95069.88
2022-12-26T04:26:19.725Z,95056.97
2022-12-26T04:29:05.069Z,95059.31
2022-12-26T04:31:52.877Z,95056.69
2022-12-26T04:34:42.574Z,95054.84
2022-12-26T04:37:32.347Z,95047.81
2022-12-26T04:40:18.251Z,95051.38
2022-12-26T04:43:49.424Z,95054.84
2022-12-26T04:45:53.613Z,95052.53
2022-12-26T04:48:39.089Z,95056.09
2022-12-26T04:51:06.926Z,95058.88
2022-12-26T04:53:34.483Z,95059.34
2022-12-26T04:56:02.151Z,95054.94
2022-12-26T04:58:31.133Z,95051.56
2022-12-26T05:01:19.011Z,95050.38
2022-12-26T05:04:04.198Z,95053.03
2022-12-26T05:06:49.501Z,95042.78
2022-12-26T05:09:39.569Z,95052.47
2022-12-26T05:12:09.220Z,95054.19
2022-12-26T05:14:38.239Z,95056.91
2022-12-26T05:17:24.718Z,95061.28
2022-12-26T05:20:10.092Z,95071.53
2022-12-26T05:22:56.946Z,95070.53
2022-12-26T05:25:44.391Z,95074.25
2022-12-26T05:28:30.495Z,95090.50
2022-12-26T05:30:59.738Z,95089.88
2022-12-26T05:33:44.946Z,95080.72
2022-12-26T05:36:12.612Z,95086.22
2022-12-26T05:38:40.344Z,95091.84
2022-12-26T05:41:08.024Z,95098.53
2022-12-26T05:43:35.612Z,95098.53
2022-12-26T05:46:04.731Z,95098.47
2022-12-26T05:48:32.490Z,95092.66
2022-12-26T05:51:00.809Z,95104.81
2022-12-26T05:53:28.839Z,95103.59
2022-12-26T05:55:56.457Z,95108.63
2022-12-26T05:58:24.016Z,95101.19
2022-12-26T06:00:51.690Z,95093.03
2022-12-26T06:03:20.723Z,95100.81
2022-12-26T06:05:48.377Z,95098.75
2022-12-26T06:08:15.985Z,95096.06
2022-12-26T06:10:43.558Z,95097.50
2022-12-26T06:13:11.214Z,95088.31
2022-12-26T06:15:39.530Z,95097.50
2022-12-26T06:18:07.230Z,95081.47
2022-12-26T06:20:36.120Z,95093.75
2022-12-26T06:23:03.712Z,95095.22
2022-12-26T06:25:31.341Z,95078.97
2022-12-26T06:27:59.057Z,95069.13
2022-12-26T06:30:26.626Z,95061.81
2022-12-26T06:32:54.243Z,95057.13
2022-12-26T06:35:22.462Z,95056.38
2022-12-26T06:37:51.499Z,95051.88
2022-12-26T06:40:19.107Z,95043.28
2022-12-26T06:42:46.672Z,95046.66
2022-12-26T06:45:14.301Z,95044.50
2022-12-26T06:47:41.881Z,95032.72
2022-12-26T06:50:10.370Z,95052.56
2022-12-26T06:52:37.942Z,95049.66
2022-12-26T06:55:07.636Z,95046.47
2022-12-26T06:57:35.199Z,95047.09
2022-12-26T07:00:02.961Z,95056.91
2022-12-26T07:02:30.635Z,95051.41
2022-12-26T07:04:58.301Z,95046.59
2022-12-26T07:07:25.876Z,95053.44
2022-12-26T07:09:53.505Z,95044.09
2022-12-26T07:12:22.478Z,95036.44
2022-12-26T07:14:50.131Z,95045.75
2022-12-26T07:17:17.747Z,95049.44
2022-12-26T07:19:45.366Z,95050.50
2022-12-26T07:22:12.915Z,95056.28
2022-12-26T07:24:40.471Z,95060.66
2022-12-26T07:27:08.071Z,95059.56
2022-12-26T07:29:37.027Z,95073.06
2022-12-26T07:32:04.750Z,95072.63
2022-12-26T07:34:32.426Z,95073.38
2022-12-26T07:37:00.026Z,95075.38
2022-12-26T07:39:27.607Z,95077.66
2022-12-26T07:42:01.139Z,95089.63
2022-12-26T07:44:30.280Z,95083.47
2022-12-26T07:47:00.372Z,95080.50
2022-12-26T07:49:28.236Z,95081.94
2022-12-26T07:51:55.938Z,95088.19
2022-12-26T07:54:23.648Z,95091.88
2022-12-26T07:56:51.291Z,95096.59
2022-12-26T07:59:19.179Z,95098.63
2022-12-26T08:01:46.988Z,95103.69
2022-12-26T08:04:16.085Z,95098.16
2022-12-26T08:06:43.845Z,95100.16
2022-12-26T08:09:15.782Z,95100.28
2022-12-26T08:11:44.055Z,95093.31
2022-12-26T08:14:12.240Z,95098.03
2022-12-26T08:16:40.025Z,95089.19
2022-12-26T08:19:07.685Z,95086.59
2022-12-26T08:21:36.646Z,95077.47
2022-12-26T08:24:04.461Z,95079.47
2022-12-26T08:26:32.037Z,95077.84
2022-12-26T08:28:59.618Z,95074.41
2022-12-26T08:31:27.190Z,95076.88
2022-12-26T08:33:57.108Z,95076.06
2022-12-26T08:36:24.845Z,95075.47
2022-12-26T08:38:54.062Z,95072.16
2022-12-26T08:41:21.717Z,95074.16
2022-12-26T08:44:25.681Z,95074.28
2022-12-26T08:46:38.036Z,95089.50
2022-12-26T08:49:05.668Z,95080.16
2022-12-26T08:51:33.270Z,95076.00
2022-12-26T08:54:02.492Z,95060.38
2022-12-26T08:56:30.134Z,95059.41
2022-12-26T08:58:58.030Z,95063.88
2022-12-26T09:01:27.273Z,95051.34
2022-12-26T09:03:55.584Z,95051.69
2022-12-26T09:06:23.583Z,95048.22
2022-12-26T09:08:51.630Z,95047.75
2022-12-26T09:11:22.761Z,95044.91
2022-12-26T09:13:50.489Z,95039.91
2022-12-26T09:16:20.527Z,95043.06
2022-12-26T09:18:48.998Z,95045.03
2022-12-26T09:21:17.347Z,95036.97
2022-12-26T09:23:45.056Z,95039.28
2022-12-26T09:26:14.383Z,95037.34
2022-12-26T09:28:43.937Z,95054.59
2022-12-26T09:31:14.426Z,95041.38
2022-12-26T09:33:42.109Z,95044.94
2022-12-26T09:36:14.844Z,95040.63
2022-12-26T09:38:42.956Z,95051.38
2022-12-26T09:41:26.517Z,95052.31
2022-12-26T09:44:02.011Z,95056.75
2022-12-26T09:46:33.730Z,95066.41
2022-12-26T09:49:04.581Z,95068.03
2022-12-26T09:51:34.694Z,95069.22
2022-12-26T09:54:04.067Z,95071.44
2022-12-26T09:59:26.096Z,95059.63
2022-12-26T10:01:54.671Z,95050.44
2022-12-26T10:04:28.920Z,95049.50
2022-12-26T10:07:04.529Z,95049.06
2022-12-26T10:09:45.468Z,95052.13
2022-12-26T10:12:26.428Z,95056.59
2022-12-26T10:14:59.658Z,95051.50
2022-12-26T10:17:34.216Z,95056.13
2022-12-26T10:20:13.470Z,95049.19
2022-12-26T10:23:14.351Z,95050.69
2022-12-26T10:25:46.763Z,95042.00
2022-12-26T10:28:20.092Z,95036.34
2022-12-26T10:30:49.970Z,95038.41
2022-12-26T10:33:21.507Z,95033.94
2022-12-26T10:35:49.294Z,95037.94
2022-12-26T10:38:25.816Z,95037.13
2022-12-26T10:40:57.945Z,95035.72
2022-12-26T10:43:29.522Z,95038.44
2022-12-26T10:47:00.273Z,95030.53
2022-12-26T10:49:28.881Z,95037.25
2022-12-26T10:51:58.206Z,95031.09
2022-12-26T10:54:26.054Z,95030.13
2022-12-26T10:56:54.833Z,95032.66
2022-12-26T10:59:24.693Z,95028.31
2022-12-26T11:01:54.021Z,95024.00
2022-12-26T11:04:52.885Z,95025.91
2022-12-26T11:07:13.110Z,95023.81
2022-12-26T11:09:42.719Z,95023.06
2022-12-26T11:12:21.322Z,95021.19
2022-12-26T11:14:49.313Z,95030.25
2022-12-26T11:17:28.966Z,95036.28
2022-12-26T11:20:23.937Z,95039.03
2022-12-26T11:22:51.978Z,95036.00
2022-12-26T11:25:22.916Z,95046.13
2022-12-26T11:27:52.934Z,95037.09
2022-12-26T11:30:24.347Z,95039.84
2022-12-26T11:33:13.501Z,95047.44
2022-12-26T11:35:48.968Z,95043.09
2022-12-26T11:38:39.151Z,95056.22
2022-12-26T11:41:31.147Z,95052.69
2022-12-26T11:44:01.386Z,95060.59
2022-12-26T11:46:37.950Z,95053.84
2022-12-26T11:49:08.064Z,95040.78
2022-12-26T11:51:40.463Z,95067.34
2022-12-26T11:54:26.836Z,95040.81
2022-12-26T11:57:22.274Z,95045.69
2022-12-26T11:59:51.338Z,95066.44
2022-12-26T12:02:25.169Z,95060.03
2022-12-26T12:04:56.719Z,95073.44
2022-12-26T12:07:36.311Z,95086.47
2022-12-26T12:10:09.054Z,95105.72
2022-12-26T12:12:42.321Z,95104.09
2022-12-26T12:15:13.817Z,95112.25
2022-12-26T12:17:46.260Z,95114.19
2022-12-26T12:20:30.484Z,95124.47
2022-12-26T12:23:11.005Z,95116.53
2022-12-26T12:25:49.251Z,95123.88
2022-12-26T12:28:32.189Z,95129.34
2022-12-26T12:31:04.695Z,95131.41
2022-12-26T12:33:42.592Z,95129.03
2022-12-26T12:36:14.350Z,95132.53
2022-12-26T12:38:56.375Z,95147.63
2022-12-26T12:41:28.052Z,95160.47
2022-12-26T12:43:59.093Z,95171.19
2022-12-26T12:46:34.909Z,95165.53
2022-12-26T12:49:12.572Z,95160.47
2022-12-26T12:51:46.760Z,95168.66
2022-12-26T12:54:39.712Z,95164.16
2022-12-26T12:57:14.328Z,95169.72
2022-12-26T12:59:48.957Z,95168.34
2022-12-26T13:02:22.010Z,95167.72
2022-12-26T13:04:54.531Z,95167.72
2022-12-26T13:07:26.902Z,95162.91
2022-12-26T13:09:58.353Z,95165.34
2022-12-26T13:12:30.317Z,95165.13
2022-12-26T13:15:00.135Z,95171.56
2022-12-26T13:17:31.990Z,95184.53
2022-12-26T13:20:03.029Z,95190.72
2022-12-26T13:22:50.830Z,95194.72
2022-12-26T13:25:19.581Z,95194.50
2022-12-26T13:27:48.020Z,95195.66
2022-12-26T13:30:17.916Z,95187.41
2022-12-26T13:32:46.731Z,95186.34
2022-12-26T13:35:51.260Z,95189.06
2022-12-26T13:38:21.748Z,95181.84
2022-12-26T13:40:52.709Z,95188.47
2022-12-26T13:43:38.954Z,95187.03
2022-12-26T13:46:06.655Z,95186.94
2022-12-26T13:48:58.772Z,95200.28
2022-12-26T13:51:59.775Z,95202.44
2022-12-26T13:54:30.061Z,95192.13
2022-12-26T13:57:25.374Z,95199.19
2022-12-26T14:00:09.583Z,95197.09
2022-12-26T14:03:20.488Z,95213.06
2022-12-26T14:06:25.912Z,95213.16
2022-12-26T14:09:05.849Z,95218.34
2022-12-26T14:11:46.617Z,95224.63
2022-12-26T14:14:26.870Z,95231.94
2022-12-26T14:16:57.680Z,95242.44
2022-12-26T14:19:41.154Z,95249.59
2022-12-26T14:22:14.217Z,95243.47
2022-12-26T14:24:49.584Z,95239.09
2022-12-26T14:27:35.591Z,95239.31
2022-12-26T14:30:21.996Z,95232.69
2022-12-26T14:33:01.764Z,95245.44
2022-12-26T14:35:33.341Z,95256.06
2022-12-26T14:38:10.805Z,95249.22
2022-12-26T14:40:39.806Z,95249.69
2022-12-26T14:43:29.262Z,95242.59
2022-12-26T14:45:58.100Z,95242.00
2022-12-26T14:48:50.771Z,95237.34
2022-12-26T14:51:31.815Z,95239.47
2022-12-26T14:54:38.647Z,95239.56
2022-12-26T14:57:45.754Z,95235.25
2022-12-26T15:00:33.716Z,95240.53
2022-12-26T15:03:33.578Z,95232.25
2022-12-26T15:06:34.020Z,95236.13
2022-12-26T15:09:13.481Z,95229.41
2022-12-26T15:12:05.568Z,95232.78
2022-12-26T15:15:00.577Z,95234.53
2022-12-26T15:17:36.982Z,95239.38
2022-12-26T15:20:38.808Z,95234.41
2022-12-26T15:23:58.681Z,95223.63
2022-12-26T15:26:42.763Z,95233.94
2022-12-26T15:29:22.259Z,95221.84
2022-12-26T15:31:57.417Z,95225.66
2022-12-26T15:34:43.355Z,95227.28
2022-12-26T15:37:21.696Z,95236.72
2022-12-26T15:39:53.304Z,95226.91
2022-12-26T15:42:32.638Z,95231.81
2022-12-26T15:45:13.216Z,95221.19
2022-12-26T15:47:47.055Z,95226.25
2022-12-26T15:50:25.597Z,95216.50
2022-12-26T15:53:02.768Z,95232.56
2022-12-26T15:56:03.833Z,95228.16
2022-12-26T15:58:52.226Z,95230.72
2022-12-26T16:01:36.433Z,95238.03
2022-12-26T16:04:05.778Z,95230.50
2022-12-26T16:06:47.689Z,95232.69
2022-12-26T16:09:25.519Z,95227.25
2022-12-26T16:11:55.613Z,95223.03
2022-12-26T16:14:29.445Z,95222.00
2022-12-26T16:17:11.113Z,95215.38
2022-12-26T16:19:40.838Z,95216.41
2022-12-26T16:22:46.724Z,95215.38
2022-12-26T16:25:16.960Z,95214.91
2022-12-26T16:27:45.135Z,95216.41
2022-12-26T16:30:17.385Z,95217.94
2022-12-26T16:32:45.833Z,95222.72
2022-12-26T16:35:20.845Z,95215.22
2022-12-26T16:37:51.222Z,95214.75
2022-12-26T16:40:30.641Z,95219.41
2022-12-26T16:43:01.968Z,95200.81
2022-12-26T16:45:32.631Z,95188.34
2022-12-26T16:48:00.549Z,95164.44
2022-12-26T16:50:30.006Z,95182.81
2022-12-26T16:53:09.952Z,95181.16
2022-12-26T16:55:41.944Z,95161.59
2022-12-26T16:58:19.615Z,95155.38
2022-12-26T17:01:04.896Z,95171.19
2022-12-26T17:03:39.811Z,95175.56
2022-12-26T17:06:10.314Z,95167.88
2022-12-26T17:08:44.036Z,95175.78
2022-12-26T17:11:11.753Z,95187.47
2022-12-26T17:13:39.471Z,95206.22
2022-12-26T17:16:10.612Z,95195.38
2022-12-26T17:18:47.375Z,95191.91
2022-12-26T17:21:23.864Z,95177.06
2022-12-26T17:24:24.776Z,95161.28
2022-12-26T17:27:11.021Z,95185.03
2022-12-26T17:29:50.416Z,95195.28
2022-12-26T17:32:25.493Z,95196.78
2022-12-26T17:34:53.194Z,95195.13
2022-12-26T17:37:23.430Z,95210.94
2022-12-26T17:40:03.280Z,95204.22
2022-12-26T17:42:31.973Z,95221.34
2022-12-26T17:44:59.625Z,95236.97
2022-12-26T17:47:28.682Z,95225.69
2022-12-26T17:49:56.910Z,95227.78
2022-12-26T17:52:26.224Z,95219.06
2022-12-26T17:54:54.269Z,95235.47
2022-12-26T17:57:25.838Z,95254.88
2022-12-26T17:59:54.384Z,95237.38
2022-12-26T18:02:22.525Z,95232.16
2022-12-26T18:04:51.065Z,95248.81
2022-12-26T18:07:24.301Z,95236.91
2022-12-26T18:09:56.397Z,95231.09
2022-12-26T18:12:25.301Z,95217.56
2022-12-26T18:14:57.692Z,95231.25
2022-12-26T18:17:30.281Z,95224.59
2022-12-26T18:19:57.875Z,95218.56
2022-12-26T18:22:25.561Z,95222.09
2022-12-26T18:24:53.160Z,95202.09
2022-12-26T18:27:23.906Z,95211.25
2022-12-26T18:29:53.238Z,95238.72
2022-12-26T18:32:24.854Z,95237.91
2022-12-26T18:34:53.270Z,95232.94
2022-12-26T18:37:21.423Z,95235.88
2022-12-26T18:39:49.236Z,95220.03
2022-12-26T18:42:17.640Z,95220.25
2022-12-26T18:44:45.509Z,95216.72
2022-12-26T18:47:16.135Z,95234.88
2022-12-26T18:49:43.752Z,95231.53
2022-12-26T18:52:12.005Z,95223.41
2022-12-26T18:54:45.104Z,95214.25
2022-12-26T18:57:17.202Z,95232.63
2022-12-26T18:59:44.652Z,95229.31
2022-12-26T19:02:17.714Z,95224.31
2022-12-26T19:04:46.490Z,95221.78
2022-12-26T19:07:14.092Z,95224.69
2022-12-26T19:09:44.285Z,95219.72
2022-12-26T19:12:12.098Z,95211.38
2022-12-26T19:14:39.703Z,95217.22
2022-12-26T19:17:07.396Z,95217.00
2022-12-26T19:19:36.344Z,95230.56
2022-12-26T19:22:04.038Z,95227.03
2022-12-26T19:24:31.827Z,95219.13
2022-12-26T19:26:59.387Z,95233.91
2022-12-26T19:29:27.039Z,95230.63
2022-12-26T19:31:56.244Z,95237.06
2022-12-26T19:34:24.235Z,95241.00
2022-12-26T19:36:53.153Z,95235.59
2022-12-26T19:39:20.978Z,95239.72
2022-12-26T19:41:48.685Z,95241.41
2022-12-26T19:44:16.398Z,95252.88
2022-12-26T19:46:43.982Z,95251.84
2022-12-26T19:49:11.564Z,95257.66
2022-12-26T19:51:39.157Z,95260.31
2022-12-26T19:54:08.150Z,95254.72
2022-12-26T19:56:35.765Z,95256.41
2022-12-26T19:59:03.371Z,95258.88
2022-12-26T20:01:32.903Z,95255.94
2022-12-26T20:04:02.282Z,95250.47
2022-12-26T20:06:32.290Z,95252.50
2022-12-26T20:09:01.765Z,95243.34
2022-12-26T20:11:32.866Z,95233.91
2022-12-26T20:14:00.614Z,95232.06
2022-12-26T20:19:16.677Z,95215.34
2022-12-26T20:21:44.267Z,95208.84
2022-12-26T20:24:12.651Z,95213.69
2022-12-26T20:26:42.307Z,95221.00
2022-12-26T20:29:10.284Z,95219.91
2022-12-26T20:31:39.147Z,95220.31
2022-12-26T20:34:07.509Z,95224.09
2022-12-26T20:36:36.600Z,95223.63
2022-12-26T20:39:07.547Z,95232.59
2022-12-26T20:41:35.343Z,95224.84
2022-12-26T20:44:04.522Z,95229.38
2022-12-26T20:46:33.424Z,95237.66
2022-12-26T20:49:02.301Z,95246.41
2022-12-26T20:51:36.944Z,95248.88
2022-12-26T20:54:06.098Z,95249.25
2022-12-26T20:56:33.920Z,95262.22
2022-12-26T20:59:01.497Z,95262.22
2022-12-26T21:01:30.764Z,95260.56
2022-12-26T21:03:59.341Z,95267.66
2022-12-26T21:06:29.431Z,95284.97
2022-12-26T21:08:57.748Z,95292.28
2022-12-26T21:11:27.655Z,95297.91
2022-12-26T21:13:58.949Z,95298.81
2022-12-26T21:16:28.727Z,95313.44
2022-12-26T21:18:58.284Z,95331.34
2022-12-26T21:21:27.578Z,95344.34
2022-12-26T21:23:59.706Z,95362.94
2022-12-26T21:26:27.314Z,95365.25
2022-12-26T21:28:59.768Z,95377.41
2022-12-26T21:31:28.280Z,95370.53
2022-12-26T21:33:57.801Z,95397.84
2022-12-26T21:36:26.181Z,95380.97
2022-12-26T21:38:54.011Z,95393.69
2022-12-26T21:41:22.118Z,95387.25
2022-12-26T21:43:49.734Z,95379.97
2022-12-26T21:46:18.880Z,95389.09
2022-12-26T21:48:47.934Z,95387.47
2022-12-26T21:51:17.496Z,95392.06
2022-12-26T21:53:45.631Z,95392.06
2022-12-26T21:56:14.139Z,95388.50
2022-12-26T21:58:56.118Z,95406.00
2022-12-26T22:01:25.527Z,95404.31
2022-12-26T22:04:11.338Z,95393.47
2022-12-26T22:06:41.071Z,95414.91
2022-12-26T22:09:09.433Z,95412.63
2022-12-26T22:11:54.833Z,95419.28
2022-12-26T22:14:22.875Z,95415.09
2022-12-26T22:16:52.357Z,95414.69
2022-12-26T22:19:19.982Z,95426.72
2022-12-26T22:21:48.850Z,95425.69
2022-12-26T22:24:16.410Z,95424.84
2022-12-26T22:26:44.168Z,95421.50
2022-12-26T22:29:11.810Z,95422.97
2022-12-26T22:31:39.623Z,95430.03
2022-12-26T22:34:09.230Z,95426.28
2022-12-26T22:36:36.920Z,95428.78
2022-12-26T22:39:06.192Z,95431.25
2022-12-26T22:41:34.271Z,95436.69
2022-12-26T22:44:01.852Z,95435.66
2022-12-26T22:46:29.601Z,95429.59
2022-12-26T22:48:57.326Z,95443.13
2022-12-26T22:51:26.390Z,95434.81
2022-12-26T22:53:54.750Z,95430.69
2022-12-26T22:56:23.673Z,95423.59
2022-12-26T22:58:53.495Z,95432.78
2022-12-26T23:01:21.517Z,95435.03
2022-12-26T23:03:49.201Z,95449.84
2022-12-26T23:06:19.435Z,95442.75
2022-12-26T23:08:47.448Z,95448.38
2022-12-26T23:11:15.768Z,95447.34
2022-12-26T23:13:45.089Z,95456.72
2022-12-26T23:16:26.375Z,95457.16
2022-12-26T23:19:14.599Z,95471.72
2022-12-26T23:21:43.140Z,95477.56
2022-12-26T23:24:15.774Z,95474.22
2022-12-26T23:26:46.289Z,95479.66
2022-12-26T23:29:34.738Z,95484.63
2022-12-26T23:32:02.940Z,95473.81
2022-12-26T23:34:30.754Z,95468.81
2022-12-26T23:36:58.407Z,95473.19
2022-12-26T23:39:26.270Z,95480.66
2022-12-26T23:41:53.937Z,95471.53
2022-12-26T23:44:23.162Z,95480.66
2022-12-26T23:46:50.882Z,95481.09
2022-12-26T23:49:18.698Z,95485.69
2022-12-26T23:51:46.359Z,95492.16
2022-12-26T23:54:14.062Z,95488.19
2022-12-26T23:56:41.976Z,95507.13
2022-12-26T23:59:09.617Z,95506.31
